Antabamba, Peru

10:55 AM PET on November 23, 2014 (GMT -0500)
Andahuaylas | Change Station
CLOSE
Current Station
Airport
Location: Andahuayla,
Elevation: 11299 ft
Nearby Weather Stations

Elev 11299 ft 13.71 °S, 73.35 °W | Updated 55 minutes ago

Scattered Clouds
Scattered Clouds
59 °F
Feels Like 59 °F
N
8
Wind Variable Wind from NNE

Today
High -- | Low -- °F
--% Chance of Precip.
Yesterday
High -- | Low -- °F
Precip. -- in
5:12 AM 6:03 PM
New Moon, 2% visible
Pressure 30.51 in
Visibility 6.2 miles
Clouds Few 1300 ft
Scattered Clouds 5000 ft
Dew Point 36 °F
Humidity 42%
Rainfall 0.00 in
Snow Depth Not available.
UV 13 out of 12
Pollen Not available.
Air Quality Not available.
Flu Activity Not available.
METAR SPHY 231500Z 02007KT 9999 FEW013 SCT050 15/02 Q1033 RMK PP000

More Conditions Fewer Conditions

Pressure 30.51 in
Visibility 6.2 miles
Clouds Few 1300 ft
Scattered Clouds 5000 ft
Dew Point 36 °F
Humidity 42%
Rainfall 0.00 in
Snow Depth Not available.
UV 13 out of 12
Pollen Not available.
Air Quality Not available.
Flu Activity Not available.
METAR SPHY 231500Z 02007KT 9999 FEW013 SCT050 15/02 Q1033 RMK PP000

More Conditions Fewer Conditions

10-Day Weather Forecast

Almanac

Astronomy

Nov. 23, 2014 Rise Set
Actual Time
Civil Twilight
Nautical Twilight
Astronomical Twilight
Moon
Length of Visible Light
Length of Day
Tomorrow will be .
, % of the Moon is Illuminated

Today's Extremes

Country Highs Country Lows

Community

WunderPhotos

Upload Photos

1,773,082 photos uploaded!

WunderBlogs® & News

Nearby

Air Quality

  Air Quality AQ Index Pollutant
Not available.

Snow Depth

Station Depth Elevation

Earthquake Activity

City Distance Mag. Time & Date
Minimum magnitude displayed is 2.5.

Coastal Water Temperatures

Place Temperature

Nearby Weather Stations